Time;durP1;ratioP1;P1;durP2;ratioP2;P2;SDS_P1;SDS_P2;PMS_P1;PMS_P2;Temp;Humidity;BMP_temperature;BMP_pressure;BME280_temperature;BME280_humidity;BME280_pressure;Samples;Min_cycle;Max_cycle;Signal;HPM_P1;HPM_P2
2021/05/21 00:00:02;;;;;;;3.17;0.47;;;19.50;22.60;;;;;;5043627;28;20090;-69
2021/05/21 00:02:28;;;;;;;0.63;0.35;;;19.60;22.90;;;;;;5037870;28;20041;-69
2021/05/21 00:04:53;;;;;;;0.77;0.38;;;19.50;23.00;;;;;;5040235;28;20052;-69
2021/05/21 00:07:19;;;;;;;3.17;0.63;;;19.40;23.10;;;;;;5034401;28;20075;-69
2021/05/21 00:09:45;;;;;;;1.30;0.40;;;19.40;23.50;;;;;;5033864;28;20041;-68
2021/05/21 00:12:10;;;;;;;1.58;0.40;;;19.40;23.10;;;;;;5031881;28;20033;-69
2021/05/21 00:14:36;;;;;;;0.80;0.40;;;19.40;23.40;;;;;;5029557;28;20063;-67
2021/05/21 00:17:02;;;;;;;1.25;0.73;;;19.30;23.30;;;;;;5040148;28;20041;-69
2021/05/21 00:19:27;;;;;;;5.13;0.52;;;19.30;23.40;;;;;;5055031;28;20135;-69
2021/05/21 00:21:53;;;;;;;1.45;0.40;;;19.30;23.80;;;;;;5040005;28;20041;-69
2021/05/21 00:24:19;;;;;;;1.48;0.30;;;19.20;23.70;;;;;;5036575;28;20064;-69
2021/05/21 00:26:44;;;;;;;2.45;0.88;;;19.20;24.00;;;;;;5043514;28;20072;-69
2021/05/21 00:29:25;;;;;;;2.95;0.50;;;19.20;23.90;;;;;;5035209;28;20044;-69
2021/05/21 00:31:51;;;;;;;1.42;0.50;;;19.20;24.10;;;;;;5037678;28;20045;-68
2021/05/21 00:34:16;;;;;;;2.22;0.55;;;19.20;23.80;;;;;;5038661;28;20033;-69
2021/05/21 00:36:42;;;;;;;1.00;0.75;;;19.10;24.10;;;;;;5040673;28;20072;-68
2021/05/21 00:39:08;;;;;;;2.42;0.50;;;19.10;24.20;;;;;;5041177;28;20131;-69
2021/05/21 00:41:34;;;;;;;1.63;0.30;;;19.10;24.30;;;;;;5040137;28;20044;-69
2021/05/21 00:43:59;;;;;;;0.95;0.45;;;19.00;24.30;;;;;;5033902;28;20045;-69
2021/05/21 00:46:25;;;;;;;2.15;0.45;;;19.10;24.40;;;;;;5044238;28;20049;-69
2021/05/21 00:48:51;;;;;;;1.48;0.57;;;19.10;24.60;;;;;;5038218;28;20503;-69
2021/05/21 00:51:16;;;;;;;1.15;0.50;;;19.00;24.40;;;;;;5040794;28;20076;-69
2021/05/21 00:53:43;;;;;;;1.10;0.70;;;19.00;24.60;;;;;;5043648;28;20460;-68
2021/05/21 00:56:09;;;;;;;1.17;0.30;;;19.00;24.60;;;;;;5028981;28;20041;-69
2021/05/21 00:58:36;;;;;;;0.43;0.40;;;19.00;24.80;;;;;;5054398;28;20037;-69
2021/05/21 01:01:16;;;;;;;1.67;0.43;;;19.00;25.00;;;;;;5025357;28;20041;-69
2021/05/21 01:03:42;;;;;;;0.45;0.40;;;19.00;25.90;;;;;;5021931;28;20496;-69
2021/05/21 01:06:08;;;;;;;0.80;0.32;;;18.90;25.40;;;;;;5035458;28;20056;-69
2021/05/21 01:08:35;;;;;;;0.20;0.20;;;18.90;25.40;;;;;;5038846;28;20041;-69
2021/05/21 01:11:28;;;;;;;1.20;0.47;;;18.80;25.30;;;;;;5033341;28;20029;-69
2021/05/21 01:13:54;;;;;;;1.25;0.40;;;18.80;25.70;;;;;;5020326;28;20052;-69
2021/05/21 01:16:20;;;;;;;0.77;0.65;;;18.80;25.60;;;;;;5033158;28;20051;-69
2021/05/21 01:18:46;;;;;;;1.45;0.50;;;18.80;25.50;;;;;;5038231;28;20037;-69
2021/05/21 01:21:12;;;;;;;0.70;0.30;;;18.80;25.70;;;;;;5057473;28;20399;-69
2021/05/21 01:23:37;;;;;;;2.78;0.57;;;18.80;25.60;;;;;;5037285;28;20162;-69
2021/05/21 01:26:03;;;;;;;1.75;0.65;;;18.70;25.50;;;;;;5038972;28;20052;-69
2021/05/21 01:28:29;;;;;;;1.52;0.50;;;18.80;25.80;;;;;;5038831;28;20087;-69
2021/05/21 01:30:55;;;;;;;1.15;0.82;;;18.80;25.90;;;;;;5040643;28;20029;-69
2021/05/21 01:33:21;;;;;;;3.35;0.45;;;18.80;26.00;;;;;;5042680;28;20094;-69
2021/05/21 01:35:47;;;;;;;0.68;0.60;;;18.70;26.00;;;;;;5058611;28;20040;-69
2021/05/21 01:38:13;;;;;;;1.50;0.45;;;18.60;26.10;;;;;;5050014;28;20035;-68
2021/05/21 01:40:40;;;;;;;0.28;0.28;;;18.60;26.40;;;;;;5048920;28;20060;-68
2021/05/21 01:43:06;;;;;;;1.17;0.50;;;18.60;25.60;;;;;;5048659;28;20041;-69
2021/05/21 01:45:33;;;;;;;0.88;0.38;;;18.70;25.80;;;;;;5060188;28;20046;-69
2021/05/21 01:47:58;;;;;;;0.50;0.30;;;18.70;25.70;;;;;;5041534;28;20060;-70
2021/05/21 01:50:25;;;;;;;0.57;0.20;;;18.70;25.60;;;;;;5044554;28;20510;-70
2021/05/21 01:52:50;;;;;;;0.45;0.30;;;18.70;25.70;;;;;;5043159;28;20127;-69
2021/05/21 01:55:16;;;;;;;1.00;0.30;;;18.70;25.70;;;;;;5054350;28;20199;-69
2021/05/21 01:57:42;;;;;;;0.25;0.22;;;18.70;25.50;;;;;;5041218;28;20424;-68
2021/05/21 02:00:10;;;;;;;0.93;0.30;;;18.70;25.80;;;;;;5062772;28;20068;-66
2021/05/21 02:02:37;;;;;;;0.32;0.32;;;18.60;26.00;;;;;;5037814;28;20433;-69
2021/05/21 02:05:04;;;;;;;0.60;0.20;;;18.60;25.60;;;;;;5043783;28;20051;-69
2021/05/21 02:07:30;;;;;;;1.92;0.30;;;18.60;25.70;;;;;;5051113;28;20094;-69
2021/05/21 02:10:01;;;;;;;1.08;0.43;;;18.60;26.00;;;;;;5040649;28;20452;-69
2021/05/21 02:12:29;;;;;;;2.65;0.30;;;18.60;25.80;;;;;;5037402;28;20037;-70
2021/05/21 02:14:57;;;;;;;2.20;0.40;;;18.60;25.90;;;;;;5042652;28;20048;-69
2021/05/21 02:17:24;;;;;;;1.67;0.40;;;18.60;26.10;;;;;;5036595;28;20056;-69
2021/05/21 02:19:50;;;;;;;0.50;0.30;;;18.70;26.10;;;;;;5041851;28;20594;-69
2021/05/21 02:22:20;;;;;;;0.77;0.35;;;18.60;26.20;;;;;;5039808;28;20219;-70
2021/05/21 02:24:46;;;;;;;0.90;0.63;;;18.60;26.30;;;;;;5039225;28;20136;-69
2021/05/21 02:27:12;;;;;;;2.10;0.70;;;18.50;26.50;;;;;;5046534;28;20075;-69
2021/05/21 02:29:39;;;;;;;1.38;0.50;;;18.50;26.60;;;;;;5042618;28;20040;-69
2021/05/21 02:32:05;;;;;;;2.45;0.43;;;18.50;26.70;;;;;;5040638;28;20497;-68
2021/05/21 02:34:30;;;;;;;1.67;0.38;;;18.50;26.70;;;;;;5048302;28;20390;-68
2021/05/21 02:36:56;;;;;;;1.73;0.50;;;18.60;27.00;;;;;;5044075;28;20041;-69
2021/05/21 02:39:22;;;;;;;2.30;0.80;;;18.50;27.00;;;;;;5039920;28;20033;-69
2021/05/21 02:41:48;;;;;;;0.75;0.50;;;18.50;27.10;;;;;;5043547;28;20037;-68
2021/05/21 02:44:13;;;;;;;1.13;0.57;;;18.60;27.30;;;;;;5039477;28;20098;-68
2021/05/21 02:46:39;;;;;;;1.52;0.60;;;18.50;27.30;;;;;;5047000;28;20055;-66
2021/05/21 02:49:05;;;;;;;1.67;0.65;;;18.50;27.30;;;;;;5033732;28;20044;-68
2021/05/21 02:51:30;;;;;;;1.95;0.63;;;18.50;27.40;;;;;;5054915;28;20037;-68
2021/05/21 02:53:56;;;;;;;0.88;0.70;;;18.50;27.60;;;;;;5042089;28;20159;-69
2021/05/21 02:56:22;;;;;;;1.23;0.70;;;18.50;27.50;;;;;;5043484;28;20395;-69
2021/05/21 02:58:47;;;;;;;0.95;0.63;;;18.50;27.50;;;;;;5038514;28;20044;-68
2021/05/21 03:01:13;;;;;;;0.88;0.50;;;18.50;27.60;;;;;;5041704;28;20041;-68
2021/05/21 03:03:39;;;;;;;0.95;0.38;;;18.50;27.50;;;;;;5046695;28;20047;-62
2021/05/21 03:06:04;;;;;;;0.68;0.40;;;18.50;27.60;;;;;;5038489;28;20045;-68
2021/05/21 03:08:30;;;;;;;2.13;0.50;;;18.40;27.60;;;;;;5035235;28;20515;-68
2021/05/21 03:10:56;;;;;;;1.38;0.47;;;18.50;28.10;;;;;;5035558;28;20029;-68
2021/05/21 03:13:22;;;;;;;1.10;0.60;;;18.40;27.70;;;;;;5035221;28;20037;-68
2021/05/21 03:15:49;;;;;;;2.78;0.60;;;18.40;27.70;;;;;;5031300;28;20037;-69
2021/05/21 03:18:22;;;;;;;1.13;0.60;;;18.40;28.10;;;;;;5037918;28;20207;-68
2021/05/21 03:20:48;;;;;;;1.00;0.60;;;18.30;28.20;;;;;;5041458;28;20041;-68
2021/05/21 03:23:15;;;;;;;1.45;0.57;;;18.30;28.30;;;;;;5039574;28;20064;-68
2021/05/21 03:25:42;;;;;;;1.80;0.88;;;18.30;28.10;;;;;;5036805;28;20082;-68
2021/05/21 03:28:08;;;;;;;1.95;0.80;;;18.30;28.40;;;;;;5038732;28;20504;-68
2021/05/21 03:30:34;;;;;;;0.35;0.35;;;18.40;28.70;;;;;;5037779;28;20068;-68
2021/05/21 03:32:59;;;;;;;2.05;1.10;;;18.30;28.70;;;;;;5044067;28;20045;-68
2021/05/21 03:35:25;;;;;;;1.40;0.70;;;18.30;28.80;;;;;;5038202;28;20026;-68
2021/05/21 03:37:51;;;;;;;0.85;0.50;;;18.30;28.90;;;;;;5034414;28;20442;-68
2021/05/21 03:40:17;;;;;;;2.80;0.57;;;18.30;28.80;;;;;;5041380;28;20043;-69
2021/05/21 03:42:42;;;;;;;1.17;0.40;;;18.30;29.10;;;;;;5037802;28;20471;-68
2021/05/21 03:45:09;;;;;;;0.80;0.60;;;18.30;29.00;;;;;;5062216;28;20098;-69
2021/05/21 03:47:35;;;;;;;3.30;0.85;;;18.20;28.80;;;;;;5033916;28;20495;-69
2021/05/21 03:50:01;;;;;;;1.13;0.70;;;18.30;29.40;;;;;;5041825;28;20033;-69
2021/05/21 03:52:27;;;;;;;3.40;0.82;;;18.30;29.00;;;;;;5036123;28;20129;-69
2021/05/21 03:54:53;;;;;;;3.15;0.93;;;18.30;28.80;;;;;;5039987;28;20401;-69
2021/05/21 03:57:20;;;;;;;4.40;0.90;;;18.20;28.70;;;;;;5040206;28;20045;-69
2021/05/21 03:59:49;;;;;;;2.22;0.90;;;18.30;28.50;;;;;;5045515;28;20064;-69
2021/05/21 04:02:14;;;;;;;4.43;0.70;;;18.30;28.90;;;;;;5034874;28;20128;-67
2021/05/21 04:04:40;;;;;;;3.20;1.23;;;18.30;28.80;;;;;;5036540;28;20124;-69
2021/05/21 04:07:07;;;;;;;2.45;0.90;;;18.30;28.80;;;;;;5035895;28;20098;-69
2021/05/21 04:09:33;;;;;;;1.35;0.93;;;18.30;29.10;;;;;;5035000;28;20040;-69
2021/05/21 04:11:59;;;;;;;4.18;1.23;;;18.20;29.30;;;;;;5036684;28;20041;-69
2021/05/21 04:14:24;;;;;;;2.50;1.02;;;18.20;29.40;;;;;;5034422;28;22212;-70
2021/05/21 04:16:50;;;;;;;2.42;0.77;;;18.20;29.60;;;;;;5034675;28;20075;-70
2021/05/21 04:19:15;;;;;;;1.77;0.93;;;18.20;29.60;;;;;;5036928;28;20044;-69
2021/05/21 04:21:41;;;;;;;6.05;1.35;;;18.20;29.60;;;;;;5040890;28;20083;-68
2021/05/21 04:24:07;;;;;;;3.92;1.13;;;18.20;30.00;;;;;;5039676;28;20041;-69
2021/05/21 04:26:33;;;;;;;1.15;0.52;;;18.30;29.90;;;;;;5037684;28;20059;-69
2021/05/21 04:29:00;;;;;;;0.80;0.50;;;18.20;29.60;;;;;;5033396;28;21086;-69
2021/05/21 04:31:26;;;;;;;5.05;0.73;;;18.30;29.80;;;;;;5039426;28;20371;-69
2021/05/21 04:33:52;;;;;;;5.82;0.80;;;18.30;29.10;;;;;;5031976;28;20045;-69
2021/05/21 04:36:19;;;;;;;2.00;0.73;;;18.30;29.00;;;;;;5036009;28;20033;-69
2021/05/21 04:38:44;;;;;;;2.22;0.82;;;18.30;28.90;;;;;;5045432;28;20136;-68
2021/05/21 04:41:10;;;;;;;1.73;0.70;;;18.30;29.00;;;;;;5041315;28;20120;-69
2021/05/21 04:43:53;;;;;;;2.78;0.90;;;18.30;29.00;;;;;;5031863;28;20099;-69
2021/05/21 04:46:19;;;;;;;1.35;0.50;;;18.30;28.80;;;;;;4998934;28;20073;-69
2021/05/21 04:48:44;;;;;;;0.98;0.40;;;18.40;28.90;;;;;;5034130;28;20482;-68
2021/05/21 04:51:10;;;;;;;4.47;0.77;;;18.30;29.00;;;;;;5036887;28;20116;-68
2021/05/21 04:53:37;;;;;;;2.40;0.82;;;18.30;28.50;;;;;;5037007;28;20033;-69
2021/05/21 04:56:03;;;;;;;1.27;0.57;;;18.40;28.70;;;;;;5037651;28;20118;-69
2021/05/21 04:58:29;;;;;;;3.08;0.50;;;18.30;28.10;;;;;;5036561;28;20483;-69
2021/05/21 05:00:55;;;;;;;1.52;0.32;;;18.30;27.90;;;;;;5041679;28;20071;-69
2021/05/21 05:03:21;;;;;;;3.15;0.65;;;18.40;28.00;;;;;;5039265;28;20085;-69
2021/05/21 05:05:47;;;;;;;2.55;1.05;;;18.40;27.50;;;;;;5035987;28;20045;-69
2021/05/21 05:08:15;;;;;;;3.92;1.02;;;18.40;27.40;;;;;;5036728;28;20045;-69
2021/05/21 05:10:42;;;;;;;1.30;0.85;;;18.40;27.20;;;;;;5034730;28;20077;-69
2021/05/21 05:13:07;;;;;;;2.50;0.40;;;18.40;27.50;;;;;;5039319;28;20052;-70
2021/05/21 05:15:34;;;;;;;2.28;0.57;;;18.40;27.40;;;;;;5032964;28;20033;-70
2021/05/21 05:18:01;;;;;;;0.60;0.22;;;18.40;27.30;;;;;;5035129;28;20128;-70
2021/05/21 05:20:27;;;;;;;0.80;0.50;;;18.40;27.10;;;;;;5034372;28;20124;-70
2021/05/21 05:22:53;;;;;;;1.13;0.47;;;18.50;27.10;;;;;;5035463;28;20116;-70
2021/05/21 05:25:20;;;;;;;1.92;0.40;;;18.50;27.00;;;;;;5035196;28;20053;-70
2021/05/21 05:27:47;;;;;;;0.90;0.40;;;18.40;27.10;;;;;;5039749;28;20044;-70
2021/05/21 05:30:13;;;;;;;2.45;0.40;;;18.40;26.80;;;;;;5021782;28;20180;-69
2021/05/21 05:32:38;;;;;;;2.10;0.50;;;18.40;26.80;;;;;;5034564;28;20059;-70
2021/05/21 05:35:09;;;;;;;1.17;0.45;;;18.40;27.00;;;;;;5035891;28;20514;-70
2021/05/21 05:37:35;;;;;;;1.00;0.35;;;18.50;26.60;;;;;;5040062;28;20135;-70
2021/05/21 05:40:00;;;;;;;0.47;0.47;;;18.30;26.30;;;;;;5035310;28;20025;-70
2021/05/21 05:42:26;;;;;;;0.40;0.40;;;18.30;26.50;;;;;;5033100;28;20033;-70
2021/05/21 05:44:52;;;;;;;1.38;0.93;;;18.30;26.60;;;;;;5035631;28;20409;-69
2021/05/21 05:47:18;;;;;;;1.70;0.93;;;18.30;26.20;;;;;;5036110;28;20116;-69
2021/05/21 05:49:44;;;;;;;1.20;0.98;;;18.40;26.70;;;;;;5033065;28;20559;-69
2021/05/21 05:52:10;;;;;;;1.55;0.93;;;18.40;26.80;;;;;;5032971;28;20174;-69
2021/05/21 05:54:36;;;;;;;2.13;0.80;;;18.40;26.80;;;;;;5040337;28;20044;-70
2021/05/21 05:57:01;;;;;;;2.13;0.90;;;18.50;27.00;;;;;;5033934;28;20037;-70
2021/05/21 05:59:28;;;;;;;1.80;1.20;;;18.40;27.20;;;;;;5040321;28;20040;-70
2021/05/21 06:01:54;;;;;;;2.72;1.05;;;18.50;26.90;;;;;;5032395;28;20486;-67
2021/05/21 06:04:19;;;;;;;1.35;0.73;;;18.50;27.30;;;;;;5035087;28;20072;-66
2021/05/21 06:06:47;;;;;;;1.60;0.88;;;18.40;27.40;;;;;;5035824;28;20041;-65
2021/05/21 06:09:13;;;;;;;1.85;1.20;;;18.40;27.90;;;;;;5035401;28;20550;-67
2021/05/21 06:11:38;;;;;;;2.45;0.93;;;18.40;27.80;;;;;;5033333;28;20047;-67
2021/05/21 06:14:04;;;;;;;1.92;1.15;;;18.40;28.10;;;;;;5036767;28;20546;-67
2021/05/21 06:16:30;;;;;;;3.92;1.30;;;18.40;27.90;;;;;;5035706;28;20045;-67
2021/05/21 06:18:56;;;;;;;4.82;1.48;;;18.50;28.00;;;;;;5040168;28;20069;-69
2021/05/21 06:21:22;;;;;;;2.47;1.05;;;18.50;28.00;;;;;;5051291;28;20037;-69
2021/05/21 06:23:47;;;;;;;3.17;0.90;;;18.50;28.40;;;;;;5035124;28;20068;-70
2021/05/21 06:28:44;;;;;;;1.98;1.00;;;18.50;27.70;;;;;;5038829;28;20115;-68
2021/05/21 06:31:10;;;;;;;2.15;0.85;;;18.60;27.90;;;;;;5043035;28;20095;-61
2021/05/21 06:33:37;;;;;;;6.25;1.00;;;18.50;27.90;;;;;;5035878;28;20042;-69
2021/05/21 06:36:03;;;;;;;2.80;1.20;;;18.50;28.10;;;;;;5041249;28;20667;-70
2021/05/21 06:38:29;;;;;;;1.45;0.90;;;18.50;28.10;;;;;;5034947;28;20503;-70
2021/05/21 06:40:54;;;;;;;5.78;1.10;;;18.60;28.10;;;;;;5042354;28;20074;-69
2021/05/21 06:43:20;;;;;;;5.43;1.30;;;18.50;28.10;;;;;;5035337;28;20392;-70
2021/05/21 06:45:48;;;;;;;2.55;1.17;;;18.50;28.00;;;;;;5037331;28;20037;-71
2021/05/21 06:48:14;;;;;;;5.45;1.23;;;18.60;28.30;;;;;;5032536;28;22017;-71
2021/05/21 06:50:42;;;;;;;6.05;1.27;;;18.70;28.80;;;;;;5040096;28;20080;-67
2021/05/21 06:53:08;;;;;;;5.95;1.60;;;18.80;28.50;;;;;;5029594;28;20179;-71
2021/05/21 06:55:35;;;;;;;1.88;1.10;;;18.90;28.40;;;;;;5034208;28;20070;-71
2021/05/21 06:58:00;;;;;;;2.22;1.13;;;19.00;28.30;;;;;;5030904;28;20056;-71
2021/05/21 07:00:26;;;;;;;3.63;1.67;;;19.10;28.40;;;;;;5033801;28;20045;-71
2021/05/21 07:02:52;;;;;;;3.08;1.30;;;19.10;28.20;;;;;;5029654;28;20615;-71
2021/05/21 07:05:18;;;;;;;3.22;1.30;;;19.10;28.20;;;;;;5033408;28;20148;-71
2021/05/21 07:07:44;;;;;;;2.60;1.48;;;19.20;28.00;;;;;;5034523;28;20347;-71
2021/05/21 07:10:10;;;;;;;4.90;1.65;;;19.30;28.30;;;;;;5032328;28;20037;-65
2021/05/21 07:12:36;;;;;;;5.47;1.33;;;19.20;27.80;;;;;;5036285;28;20060;-70
2021/05/21 07:15:04;;;;;;;3.75;1.02;;;18.90;28.00;;;;;;5028603;28;20041;-70
2021/05/21 07:17:30;;;;;;;5.95;1.75;;;19.10;28.10;;;;;;5034365;28;20037;-71
2021/05/21 07:19:55;;;;;;;2.47;1.00;;;19.20;28.40;;;;;;5027519;28;20790;-70
2021/05/21 07:22:21;;;;;;;9.80;1.67;;;19.20;28.00;;;;;;5034917;28;20072;-70
2021/05/21 07:24:47;;;;;;;3.83;1.00;;;19.20;27.80;;;;;;5030900;28;20137;-70
2021/05/21 07:27:13;;;;;;;2.47;0.95;;;19.10;27.40;;;;;;5033561;28;20049;-70
2021/05/21 07:29:40;;;;;;;3.05;1.02;;;19.20;27.50;;;;;;5033192;28;20107;-70
2021/05/21 07:32:07;;;;;;;3.85;1.15;;;18.90;27.10;;;;;;5035604;28;20037;-70
2021/05/21 07:34:33;;;;;;;2.70;1.45;;;19.20;27.50;;;;;;5028316;28;20044;-71
2021/05/21 07:36:59;;;;;;;5.03;1.50;;;19.30;27.50;;;;;;5033346;28;20037;-70
2021/05/21 07:39:24;;;;;;;1.30;0.80;;;19.30;27.80;;;;;;5045166;28;20041;-70
2021/05/21 07:41:53;;;;;;;6.45;2.13;;;19.30;27.70;;;;;;5028592;28;20033;-70
2021/05/21 07:44:19;;;;;;;6.05;1.85;;;19.30;27.70;;;;;;5036157;28;20045;-70
2021/05/21 07:46:46;;;;;;;4.93;1.67;;;19.20;27.60;;;;;;5035115;28;20068;-70
2021/05/21 07:49:13;;;;;;;5.93;2.05;;;19.10;27.80;;;;;;5038830;28;20074;-71
2021/05/21 07:51:39;;;;;;;5.55;1.63;;;19.20;28.00;;;;;;5039130;28;20037;-71
2021/05/21 07:54:05;;;;;;;4.57;1.42;;;19.30;28.00;;;;;;5041806;28;20053;-70
2021/05/21 07:56:30;;;;;;;2.42;1.38;;;19.30;27.60;;;;;;5038061;28;20043;-70
2021/05/21 07:58:56;;;;;;;4.72;1.20;;;19.40;27.60;;;;;;5040459;28;20045;-69
2021/05/21 08:01:22;;;;;;;3.05;1.58;;;19.40;27.90;;;;;;5035282;28;20566;-69
2021/05/21 08:03:50;;;;;;;1.80;0.95;;;19.40;27.90;;;;;;5044044;28;20482;-69
2021/05/21 08:06:16;;;;;;;4.35;1.70;;;19.50;27.70;;;;;;5029505;28;20041;-68
2021/05/21 08:08:42;;;;;;;4.32;1.70;;;19.50;27.40;;;;;;5038401;28;20055;-68
2021/05/21 08:11:08;;;;;;;2.67;1.50;;;19.40;27.50;;;;;;5040267;28;20045;-69
2021/05/21 08:13:38;;;;;;;3.47;1.27;;;19.50;27.50;;;;;;5044572;28;20154;-70
2021/05/21 08:16:09;;;;;;;3.70;1.23;;;19.60;27.00;;;;;;5036397;28;20041;-70
2021/05/21 08:18:35;;;;;;;4.82;1.35;;;19.70;27.00;;;;;;5043220;28;20083;-71
2021/05/21 08:21:04;;;;;;;4.20;1.25;;;19.80;27.00;;;;;;5036760;28;20127;-72
2021/05/21 08:23:30;;;;;;;6.65;1.38;;;19.80;27.40;;;;;;5039181;28;20063;-71
2021/05/21 08:25:55;;;;;;;4.07;1.55;;;19.90;27.00;;;;;;5040346;28;20523;-70
2021/05/21 08:28:22;;;;;;;2.47;1.40;;;19.90;26.60;;;;;;5034645;28;20479;-71
2021/05/21 08:30:48;;;;;;;2.47;1.10;;;19.90;27.00;;;;;;5041312;28;20549;-70
2021/05/21 08:33:14;;;;;;;4.22;1.40;;;20.00;27.00;;;;;;5037554;28;20124;-69
2021/05/21 08:35:40;;;;;;;2.10;1.20;;;19.90;27.10;;;;;;5040496;28;20123;-70
2021/05/21 08:38:06;;;;;;;10.57;1.85;;;20.00;27.20;;;;;;5036587;28;20060;-70
2021/05/21 08:40:36;;;;;;;4.45;1.63;;;20.00;27.40;;;;;;5043475;28;20036;-70
2021/05/21 08:43:06;;;;;;;3.58;1.67;;;20.10;27.10;;;;;;5043403;28;20114;-70
2021/05/21 08:45:32;;;;;;;7.63;2.92;;;20.10;26.50;;;;;;5058863;28;20048;-70
2021/05/21 08:47:58;;;;;;;3.38;1.67;;;20.10;26.70;;;;;;5041042;28;20029;-70
2021/05/21 08:50:25;;;;;;;8.73;1.73;;;20.20;26.50;;;;;;5042044;28;20502;-70
2021/05/21 08:52:51;;;;;;;2.63;1.50;;;20.30;26.30;;;;;;5034939;28;20032;-70
2021/05/21 08:55:18;;;;;;;3.17;1.42;;;20.20;26.10;;;;;;5035287;28;20076;-70
2021/05/21 08:57:44;;;;;;;5.00;1.55;;;20.30;26.30;;;;;;5041640;28;20045;-70
2021/05/21 09:00:11;;;;;;;1.38;1.08;;;20.30;26.30;;;;;;5046146;28;20063;-62
2021/05/21 09:02:38;;;;;;;2.65;1.38;;;20.40;26.40;;;;;;5043866;28;20036;-70
2021/05/21 09:05:10;;;;;;;2.97;1.35;;;20.50;25.90;;;;;;5053033;28;20033;-70
2021/05/21 09:07:38;;;;;;;3.78;1.35;;;20.40;26.30;;;;;;5033111;28;20041;-70
2021/05/21 09:10:06;;;;;;;4.72;1.60;;;20.40;26.40;;;;;;5038680;28;20090;-70
2021/05/21 09:12:42;;;;;;;5.65;1.80;;;20.40;26.10;;;;;;5043410;28;20037;-70
2021/05/21 09:15:20;;;;;;;2.63;1.40;;;20.40;26.30;;;;;;5037583;28;20364;-70
2021/05/21 09:17:57;;;;;;;4.60;1.80;;;20.50;26.20;;;;;;5018014;28;20064;-69
2021/05/21 09:20:32;;;;;;;4.50;1.88;;;20.50;26.10;;;;;;5036737;28;20052;-69
2021/05/21 09:23:16;;;;;;;5.00;1.77;;;20.50;26.20;;;;;;5041847;28;20051;-70
2021/05/21 09:25:47;;;;;;;2.60;1.50;;;20.60;26.00;;;;;;5038642;28;20483;-69
2021/05/21 09:28:46;;;;;;;5.50;1.98;;;20.70;25.80;;;;;;5044000;28;20045;-69
2021/05/21 09:31:19;;;;;;;3.22;1.70;;;20.70;26.20;;;;;;5015371;28;20040;-69
2021/05/21 09:33:48;;;;;;;2.90;1.77;;;20.80;25.70;;;;;;5037516;28;20119;-70
2021/05/21 09:36:14;;;;;;;2.72;1.92;;;20.90;25.50;;;;;;5035033;28;20043;-70
2021/05/21 09:38:57;;;;;;;4.18;1.77;;;21.10;25.30;;;;;;5042348;28;20115;-70
2021/05/21 09:41:25;;;;;;;4.90;1.88;;;21.20;25.20;;;;;;5012217;28;20030;-70
2021/05/21 09:43:56;;;;;;;4.05;2.28;;;21.20;25.30;;;;;;5038360;28;20033;-70
2021/05/21 09:46:22;;;;;;;5.07;2.60;;;21.30;25.10;;;;;;5031180;28;20041;-70
2021/05/21 09:48:48;;;;;;;3.88;2.15;;;21.40;24.90;;;;;;5039681;28;20040;-70
2021/05/21 09:51:15;;;;;;;4.93;2.17;;;21.50;24.80;;;;;;5035259;28;20506;-69
2021/05/21 09:53:46;;;;;;;2.97;1.85;;;21.50;24.60;;;;;;5047646;28;20119;-70
2021/05/21 09:56:23;;;;;;;4.97;1.70;;;21.70;24.60;;;;;;5042309;28;20114;-70
2021/05/21 09:58:48;;;;;;;2.70;1.55;;;21.90;24.40;;;;;;5048359;28;20037;-70
2021/05/21 10:01:19;;;;;;;3.05;1.60;;;21.80;23.80;;;;;;5036333;28;20449;-70
2021/05/21 10:03:47;;;;;;;4.63;1.88;;;21.90;23.70;;;;;;5037477;28;20513;-70
2021/05/21 10:06:14;;;;;;;3.10;2.10;;;21.90;23.90;;;;;;5032936;28;20063;-71
2021/05/21 10:08:40;;;;;;;3.03;2.08;;;21.90;23.90;;;;;;5048778;28;20040;-70
2021/05/21 10:11:07;;;;;;;3.83;2.03;;;21.90;23.80;;;;;;5028943;28;20037;-71
2021/05/21 10:13:33;;;;;;;6.45;3.88;;;22.20;24.10;;;;;;5034304;28;20044;-71
2021/05/21 10:16:00;;;;;;;3.17;1.50;;;22.30;24.10;;;;;;5032608;28;20053;-70
2021/05/21 10:18:26;;;;;;;5.22;1.88;;;22.50;23.90;;;;;;5034698;28;20065;-71
2021/05/21 10:20:55;;;;;;;4.80;1.90;;;22.60;23.80;;;;;;5030928;28;20045;-71
2021/05/21 10:23:25;;;;;;;1.80;1.30;;;22.80;23.80;;;;;;5049826;28;20088;-70
2021/05/21 10:25:55;;;;;;;4.70;2.53;;;22.80;23.80;;;;;;5032602;28;20170;-71
2021/05/21 10:28:27;;;;;;;3.38;2.20;;;22.80;24.00;;;;;;5023786;28;20044;-71
2021/05/21 10:30:56;;;;;;;2.83;1.77;;;22.80;24.00;;;;;;5034002;28;20053;-70
2021/05/21 10:33:26;;;;;;;2.28;1.70;;;22.80;23.80;;;;;;5040696;28;20457;-70
2021/05/21 10:35:51;;;;;;;3.63;1.83;;;22.80;23.90;;;;;;5043215;28;20475;-71
2021/05/21 10:38:21;;;;;;;4.70;1.60;;;22.80;24.20;;;;;;5044035;28;20082;-70
2021/05/21 10:41:17;;;;;;;4.15;1.92;;;22.80;23.90;;;;;;5042046;28;20032;-70
2021/05/21 10:43:50;;;;;;;3.88;2.10;;;23.00;24.40;;;;;;5043144;28;20048;-64
2021/05/21 10:46:17;;;;;;;4.18;1.60;;;23.10;23.50;;;;;;5043503;28;20044;-70
2021/05/21 10:48:58;;;;;;;5.65;1.90;;;23.20;24.60;;;;;;5042386;28;20053;-69
2021/05/21 10:51:26;;;;;;;4.30;1.83;;;23.20;23.40;;;;;;5042596;28;20095;-70
2021/05/21 10:54:23;;;;;;;4.10;1.92;;;23.30;33.50;;;;;;5039483;28;20051;-71
2021/05/21 10:56:49;;;;;;;3.42;1.88;;;23.50;22.90;;;;;;5013347;28;20182;-72
2021/05/21 10:59:14;;;;;;;2.85;2.05;;;23.50;23.10;;;;;;5033151;28;20045;-70
2021/05/21 11:01:44;;;;;;;4.47;2.35;;;23.50;23.10;;;;;;5036587;28;20052;-70
2021/05/21 11:04:11;;;;;;;3.55;2.17;;;23.90;23.10;;;;;;5036585;28;20097;-70
2021/05/21 11:06:50;;;;;;;2.70;1.98;;;24.40;22.30;;;;;;5029764;28;20136;-70
2021/05/21 11:09:22;;;;;;;4.43;2.28;;;24.80;22.10;;;;;;5029952;28;20041;-70
2021/05/21 11:12:00;;;;;;;5.32;2.72;;;25.00;21.70;;;;;;5031091;28;20124;-69
2021/05/21 11:14:33;;;;;;;4.70;2.83;;;25.10;21.60;;;;;;5034199;28;20090;-70
2021/05/21 11:17:06;;;;;;;6.97;3.00;;;25.30;21.80;;;;;;5036417;28;20045;-70
2021/05/21 11:19:32;;;;;;;7.60;3.38;;;25.40;21.40;;;;;;5033302;28;20935;-70
2021/05/21 11:22:05;;;;;;;7.30;3.35;;;25.90;21.20;;;;;;5031314;28;20045;-70
2021/05/21 11:24:40;;;;;;;3.88;2.95;;;25.90;21.20;;;;;;5029709;28;20092;-70
2021/05/21 11:27:07;;;;;;;8.80;2.60;;;25.80;21.40;;;;;;5036693;28;20548;-70
2021/05/21 11:29:34;;;;;;;2.65;2.33;;;25.90;21.70;;;;;;5034255;28;20045;-70
2021/05/21 11:32:01;;;;;;;5.15;3.13;;;25.60;21.30;;;;;;5030920;28;20034;-70
2021/05/21 11:34:27;;;;;;;4.07;3.03;;;25.70;21.70;;;;;;5035446;28;20042;-70
2021/05/21 11:36:56;;;;;;;8.32;3.50;;;25.80;21.60;;;;;;5033062;28;20048;-70
2021/05/21 11:39:25;;;;;;;4.30;3.03;;;26.10;21.30;;;;;;5034830;28;20040;-70
2021/05/21 11:41:53;;;;;;;5.32;2.85;;;26.40;21.20;;;;;;5034845;28;20052;-70
2021/05/21 11:44:20;;;;;;;5.88;2.70;;;;;;;;;;5036878;28;20123;-70
2021/05/21 11:46:46;;;;;;;7.43;3.22;;;26.70;38.50;;;;;;5033648;28;20059;-70
2021/05/21 11:49:19;;;;;;;5.05;2.67;;;26.90;21.10;;;;;;5046555;28;20041;-70
2021/05/21 11:52:03;;;;;;;3.65;2.42;;;27.00;23.00;;;;;;5034666;28;20174;-70
2021/05/21 11:54:29;;;;;;;6.77;2.67;;;26.90;20.70;;;;;;5035137;28;20033;-70
2021/05/21 11:56:59;;;;;;;6.88;2.53;;;26.80;20.80;;;;;;5041296;28;20040;-71
2021/05/21 11:59:25;;;;;;;3.63;2.70;;;27.20;20.60;;;;;;5045723;28;20051;-68
2021/05/21 12:01:55;;;;;;;3.22;2.42;;;27.30;20.40;;;;;;5039071;28;20048;-68
2021/05/21 12:04:22;;;;;;;5.90;2.58;;;27.50;20.60;;;;;;5042738;28;20033;-69
2021/05/21 12:06:50;;;;;;;4.65;2.40;;;27.80;20.30;;;;;;5030426;28;20569;-69
2021/05/21 12:09:19;;;;;;;5.32;2.38;;;27.70;20.70;;;;;;5032816;28;20044;-68
2021/05/21 12:11:46;;;;;;;3.08;2.50;;;27.30;20.70;;;;;;5028583;28;20475;-68
2021/05/21 12:14:16;;;;;;;4.78;2.45;;;27.30;20.90;;;;;;5036903;28;20524;-69
2021/05/21 12:16:43;;;;;;;2.25;1.30;;;27.60;20.60;;;;;;5029819;28;20063;-69
2021/05/21 12:19:11;;;;;;;6.57;1.77;;;27.80;20.40;;;;;;5035547;28;20044;-69
2021/05/21 12:21:38;;;;;;;2.38;1.65;;;28.00;20.10;;;;;;5032028;28;20045;-68
2021/05/21 12:24:06;;;;;;;2.95;1.52;;;27.90;20.30;;;;;;5040567;28;20053;-68
2021/05/21 12:26:37;;;;;;;2.55;1.10;;;28.30;20.20;;;;;;5032903;28;20423;-68
2021/05/21 12:29:06;;;;;;;3.75;1.65;;;28.20;20.50;;;;;;5044314;28;20112;-68
2021/05/21 12:31:36;;;;;;;3.65;2.28;;;28.20;20.60;;;;;;5037479;28;20628;-68
2021/05/21 12:34:02;;;;;;;3.95;1.70;;;27.70;20.30;;;;;;5033335;28;20067;-69
2021/05/21 12:36:30;;;;;;;6.38;2.10;;;28.00;20.60;;;;;;5039048;28;20497;-68
2021/05/21 12:39:07;;;;;;;2.42;1.77;;;27.80;20.90;;;;;;5042869;28;20045;-70
2021/05/21 12:41:37;;;;;;;6.63;2.65;;;28.00;20.80;;;;;;5037919;28;20119;-68
2021/05/21 12:44:13;;;;;;;4.63;2.17;;;28.00;20.10;;;;;;5038443;28;20053;-69
2021/05/21 12:46:53;;;;;;;6.43;2.25;;;28.20;20.60;;;;;;5017163;28;20052;-69
2021/05/21 12:49:50;;;;;;;5.30;1.58;;;28.40;20.30;;;;;;5017590;28;20041;-68
2021/05/21 12:52:16;;;;;;;4.38;1.67;;;28.20;20.30;;;;;;5034159;28;20033;-68